• Join FlightAware (Why Join?)
  • Login
  • US Flag 
04:16PM EST


 

Airport Tracker/Info


-or-


 

Live Flight TrackerFlight Track Log ✈ N519JG ✈ 08-May-2013 ✈ KLOT - KJQF

Flight Track Log - Related Links

Times and Time Zones

All times are in EDT time to prevent confusion due to time zone crossing. See the N519JG flight status page for this flight to view local times or setup timezone preferences in your user account.

Time Position Orientation Groundspeed Altitude Reporting Facility
EDT Latitude Longitude Course Direction KTS MPH feet Rate Location/Type
06:25PM 41.3667 -88.2833 180° South 243 280 3,000  Level Chicago TRACON
06:26PM 41.3000 -88.2833 180° South 252 290 3,300 1,200 Climbing Chicago TRACON
06:27PM 41.2333 -88.2333 151° Southeast 244 281 5,500 2,040 Climbing Chicago TRACON
06:28PM 41.1833 -88.1667 135° Southeast 253 291 7,700 1,860 Climbing Chicago TRACON
06:29PM 41.1211 -88.1139 147° Southeast 257 296 9,800 1,020 Climbing Chicago Center
06:30PM 41.0594 -88.0497 142° Southeast 279 321 10,000 240 Climbing Chicago Center
06:31PM 40.9786 -87.9678 143° Southeast 305 351 10,300 720 Climbing Chicago Center
06:32PM 40.9122 -87.8986 142° Southeast 306 352 11,600 1,320 Climbing Chicago Center
06:33PM 40.8478 -87.8333 143° Southeast 296 341 13,100 720 Climbing Chicago Center
06:34PM 40.7764 -87.7589 142° Southeast 326 375 13,100  Level Chicago Center
06:35PM 40.7067 -87.6892 143° Southeast 322 371 13,100 780 Level Chicago Center
06:36PM 40.6231 -87.6053 143° Southeast 317 365 14,800 1,500 Climbing Chicago Center
06:37PM 40.5533 -87.5350 143° Southeast 319 367 16,200 1,200 Climbing Chicago Center
06:38PM 40.4822 -87.4631 142° Southeast 324 373 17,400 1,140 Climbing Chicago Center
06:39PM 40.4133 -87.3981 144° Southeast 328 377 18,600 1,320 Climbing Chicago Center
06:40PM 40.3264 -87.3119 143° Southeast 328 377 20,200 1,380 Climbing Chicago Center
06:41PM 40.2533 -87.2389 143° Southeast 330 380 21,500 1,260 Climbing Chicago Center
06:42PM 40.1808 -87.1672 143° Southeast 330 380 22,900 1,320 Climbing Chicago Center
06:43PM 40.1078 -87.0931 142° Southeast 329 379 24,100 1,320 Climbing Indianapolis Center
06:44PM 40.0353 -87.0225 143° Southeast 327 376 25,500 1,140 Climbing Indianapolis Center
06:45PM 39.9625 -86.9514 143° Southeast 328 377 26,500 1,080 Climbing Indianapolis Center
06:46PM 39.8900 -86.8797 143° Southeast 329 379 27,800 1,200 Climbing Indianapolis Center
06:47PM 39.8050 -86.7967 143° Southeast 324 373 29,000 540 Climbing Indianapolis Center
06:48PM 39.7292 -86.7253 144° Southeast 336 387 29,000  Level Indianapolis Center
06:49PM 39.6486 -86.6456 143° Southeast 364 419 29,000  Level Indianapolis Center
06:50PM 39.5647 -86.5653 144° Southeast 377 434 29,000  Level Indianapolis Center
06:52PM 39.4789 -86.4825 143° Southeast 388 447 29,000  Level Indianapolis Center
06:53PM 39.3756 -86.3828 143° Southeast 390 449 29,000 480 Level Indianapolis Center
06:54PM 39.2906 -86.3008 143° Southeast 386 444 30,100 960 Climbing Indianapolis Center
06:55PM 39.2136 -86.2275 144° Southeast 351 404 31,000 420 Climbing Indianapolis Center
06:56PM 39.1328 -86.1506 144° Southeast 359 413 31,000  Level Indianapolis Center
06:57PM 39.0492 -86.0711 144° Southeast 372 428 31,000  Level Indianapolis Center
06:58PM 38.9464 -85.9739 144° Southeast 384 442 31,000  Level Indianapolis Center
06:59PM 38.8600 -85.8917 143° Southeast 386 444 31,000  Level Indianapolis Center
07:00PM 38.7719 -85.8092 144° Southeast 392 451 31,000  Level Indianapolis Center
07:01PM 38.6844 -85.7264 144° Southeast 392 451 31,000  Level Indianapolis Center
07:02PM 38.5983 -85.6439 143° Southeast 389 448 31,000  Level Indianapolis Center
07:03PM 38.5331 -85.5286 126° Southeast 397 457 31,000  Level Indianapolis Center
07:04PM 38.4597 -85.3903 124° Southeast 394 453 31,000  Level Indianapolis Center
07:05PM 38.3978 -85.2756 125° Southeast 392 451 31,000  Level Indianapolis Center
07:06PM 38.3422 -85.1692 124° Southeast 382 440 31,000  Level Indianapolis Center
07:07PM 38.2750 -85.0392 123° Southeast 376 433 31,000  Level Indianapolis Center
07:08PM 38.2153 -84.9314 125° Southeast 373 429 31,000  Level Indianapolis Center
07:09PM 38.1553 -84.8228 125° Southeast 373 429 31,000  Level Indianapolis Center
07:10PM 38.0961 -84.7114 124° Southeast 377 434 31,000  Level Indianapolis Center
07:11PM 38.0364 -84.5997 124° Southeast 383 441 31,000  Level Indianapolis Center
07:12PM 37.9758 -84.4894 125° Southeast 381 438 31,000  Level Indianapolis Center
07:13PM 37.9250 -84.3464 114° Southeast 384 442 31,000  Level Indianapolis Center
07:14PM 37.8842 -84.2217 112° Southeast 383 441 31,000  Level Indianapolis Center
07:15PM 37.8431 -84.0956 112° Southeast 388 447 31,000  Level Indianapolis Center
07:16PM 37.8019 -83.9700 112° Southeast 387 445 31,000  Level Indianapolis Center
07:17PM 37.7611 -83.8444 112° Southeast 386 444 31,000  Level Indianapolis Center
07:18PM 37.7117 -83.6956 113° Southeast 390 449 31,000  Level Indianapolis Center
07:19PM 37.6700 -83.5700 113° Southeast 388 447 31,000  Level Indianapolis Center
07:20PM 37.6214 -83.4500 117° Southeast 386 444 31,000  Level Indianapolis Center
07:21PM 37.5389 -83.3619 140° Southeast 386 444 31,000  Level Indianapolis Center
07:23PM 37.4494 -83.2842 145° Southeast 389 448 31,000  Level Indianapolis Center
07:24PM 37.3667 -83.1972 140° Southeast 389 448 31,000 -60 Level Indianapolis Center
07:25PM 37.2781 -83.0822 134° Southeast 390 449 30,900 -360 Descending Indianapolis Center
07:26PM 37.2036 -82.9794 132° Southeast 395 455 30,300 -1,020 Descending Indianapolis Center
07:27PM 37.1278 -82.8781 133° Southeast 396 456 28,900 -1,440 Descending Indianapolis Center
07:27PM 37.1014 -82.8417 132° Southeast 388 447 28,200 -1,920 Descending Atlanta Center
07:28PM 37.0253 -82.7414 134° Southeast 394 453 26,200 -1,860 Descending Atlanta Center
07:29PM 36.9533 -82.6439 133° Southeast 394 453 24,500 -1,500 Descending Atlanta Center
07:30PM 36.9050 -82.5797 133° Southeast 381 438 23,800 -780 Descending Indianapolis Center
07:31PM 36.8347 -82.4861 133° Southeast 370 426 23,200 -780 Descending Indianapolis Center
07:31PM 36.8092 -82.4547 135° Southeast 372 428 22,800 -960 Descending Atlanta Center
07:32PM 36.7369 -82.3603 134° Southeast 372 428 22,000 -780 Descending Atlanta Center
07:33PM 36.6606 -82.2608 134° Southeast 384 442 21,300 -900 Descending Atlanta Center
07:34PM 36.5819 -82.1592 134° Southeast 401 461 20,300 -1,140 Descending Atlanta Center
07:35PM 36.5031 -82.0553 133° Southeast 406 467 19,100 -1,260 Descending Atlanta Center
07:36PM 36.4286 -81.9589 134° Southeast 395 455 17,800 -1,020 Descending Atlanta Center
07:38PM 36.2933 -81.7819 133° Southeast 380 437 16,300 -960 Descending Indianapolis Center
07:39PM 36.2083 -81.6778 135° Southeast 370 426 15,100 -1,200 Descending Indianapolis Center